sensor_id;sensor_type;location;lat;lon;timestamp;P1;durP1;ratioP1;P2;durP2;ratioP2
12816;SDS011;6473;51.552;6.716;2023-02-27T00:00:53;1.70;;;1.50;;
12816;SDS011;6473;51.552;6.716;2023-02-27T00:03:21;3.37;;;1.70;;
12816;SDS011;6473;51.552;6.716;2023-02-27T00:05:48;2.27;;;1.80;;
12816;SDS011;6473;51.552;6.716;2023-02-27T00:08:16;2.73;;;1.90;;
12816;SDS011;6473;51.552;6.716;2023-02-27T00:10:43;2.50;;;1.47;;
12816;SDS011;6473;51.552;6.716;2023-02-27T00:13:10;1.57;;;1.40;;
12816;SDS011;6473;51.552;6.716;2023-02-27T00:15:37;2.00;;;1.80;;
12816;SDS011;6473;51.552;6.716;2023-02-27T00:18:05;3.27;;;1.70;;
12816;SDS011;6473;51.552;6.716;2023-02-27T00:20:33;3.57;;;1.53;;
12816;SDS011;6473;51.552;6.716;2023-02-27T00:23:02;1.50;;;1.40;;
12816;SDS011;6473;51.552;6.716;2023-02-27T00:25:29;2.50;;;1.80;;
12816;SDS011;6473;51.552;6.716;2023-02-27T00:27:57;2.33;;;1.63;;
12816;SDS011;6473;51.552;6.716;2023-02-27T00:30:24;1.60;;;1.47;;
12816;SDS011;6473;51.552;6.716;2023-02-27T00:32:51;2.40;;;1.60;;
12816;SDS011;6473;51.552;6.716;2023-02-27T00:35:19;2.67;;;1.60;;
12816;SDS011;6473;51.552;6.716;2023-02-27T00:37:47;1.43;;;1.30;;
12816;SDS011;6473;51.552;6.716;2023-02-27T00:40:14;1.70;;;1.53;;
12816;SDS011;6473;51.552;6.716;2023-02-27T00:42:42;1.53;;;1.27;;
12816;SDS011;6473;51.552;6.716;2023-02-27T00:45:10;3.53;;;1.60;;
12816;SDS011;6473;51.552;6.716;2023-02-27T00:55:45;1.87;;;1.40;;
12816;SDS011;6473;51.552;6.716;2023-02-27T00:58:13;3.20;;;1.73;;
12816;SDS011;6473;51.552;6.716;2023-02-27T01:00:41;3.43;;;1.90;;
12816;SDS011;6473;51.552;6.716;2023-02-27T01:03:09;1.70;;;1.60;;
12816;SDS011;6473;51.552;6.716;2023-02-27T01:05:36;2.63;;;1.70;;
12816;SDS011;6473;51.552;6.716;2023-02-27T01:08:04;2.47;;;1.90;;
12816;SDS011;6473;51.552;6.716;2023-02-27T01:10:33;1.87;;;1.53;;
12816;SDS011;6473;51.552;6.716;2023-02-27T01:13:03;1.60;;;1.50;;
12816;SDS011;6473;51.552;6.716;2023-02-27T01:15:32;3.07;;;1.67;;
12816;SDS011;6473;51.552;6.716;2023-02-27T01:18:00;4.27;;;2.03;;
12816;SDS011;6473;51.552;6.716;2023-02-27T01:20:28;5.07;;;1.73;;
12816;SDS011;6473;51.552;6.716;2023-02-27T01:22:56;4.20;;;1.77;;
12816;SDS011;6473;51.552;6.716;2023-02-27T01:25:24;3.53;;;1.80;;
12816;SDS011;6473;51.552;6.716;2023-02-27T01:27:51;3.10;;;1.83;;
12816;SDS011;6473;51.552;6.716;2023-02-27T01:30:20;2.60;;;1.50;;
12816;SDS011;6473;51.552;6.716;2023-02-27T01:32:48;4.63;;;1.93;;
12816;SDS011;6473;51.552;6.716;2023-02-27T01:35:16;5.13;;;1.97;;
12816;SDS011;6473;51.552;6.716;2023-02-27T01:37:47;2.10;;;1.90;;
12816;SDS011;6473;51.552;6.716;2023-02-27T01:40:15;2.40;;;1.87;;
12816;SDS011;6473;51.552;6.716;2023-02-27T01:42:43;1.93;;;1.70;;
12816;SDS011;6473;51.552;6.716;2023-02-27T01:45:27;2.73;;;1.80;;
12816;SDS011;6473;51.552;6.716;2023-02-27T01:48:05;2.27;;;1.87;;
12816;SDS011;6473;51.552;6.716;2023-02-27T01:50:40;3.03;;;1.53;;
12816;SDS011;6473;51.552;6.716;2023-02-27T01:53:12;2.40;;;1.80;;
12816;SDS011;6473;51.552;6.716;2023-02-27T01:55:40;3.23;;;1.70;;
12816;SDS011;6473;51.552;6.716;2023-02-27T01:58:09;4.53;;;1.60;;
12816;SDS011;6473;51.552;6.716;2023-02-27T02:00:40;2.43;;;1.80;;
12816;SDS011;6473;51.552;6.716;2023-02-27T02:05:54;2.23;;;1.87;;
12816;SDS011;6473;51.552;6.716;2023-02-27T02:08:24;2.53;;;1.70;;
12816;SDS011;6473;51.552;6.716;2023-02-27T02:10:54;3.17;;;1.87;;
12816;SDS011;6473;51.552;6.716;2023-02-27T02:13:24;3.63;;;2.10;;
12816;SDS011;6473;51.552;6.716;2023-02-27T02:15:57;4.10;;;1.83;;
12816;SDS011;6473;51.552;6.716;2023-02-27T02:18:38;3.50;;;2.00;;
12816;SDS011;6473;51.552;6.716;2023-02-27T02:21:26;3.47;;;1.97;;
12816;SDS011;6473;51.552;6.716;2023-02-27T02:40:52;3.73;;;1.83;;
12816;SDS011;6473;51.552;6.716;2023-02-27T02:43:24;4.73;;;2.47;;
12816;SDS011;6473;51.552;6.716;2023-02-27T02:45:59;5.57;;;2.00;;
12816;SDS011;6473;51.552;6.716;2023-02-27T02:48:31;4.33;;;2.17;;
12816;SDS011;6473;51.552;6.716;2023-02-27T02:51:09;2.77;;;1.70;;
12816;SDS011;6473;51.552;6.716;2023-02-27T02:53:44;3.03;;;2.13;;
12816;SDS011;6473;51.552;6.716;2023-02-27T02:56:18;5.17;;;1.83;;
12816;SDS011;6473;51.552;6.716;2023-02-27T02:58:53;2.37;;;2.10;;
12816;SDS011;6473;51.552;6.716;2023-02-27T03:01:28;5.17;;;2.13;;
12816;SDS011;6473;51.552;6.716;2023-02-27T03:04:02;4.40;;;2.30;;
12816;SDS011;6473;51.552;6.716;2023-02-27T03:06:35;5.87;;;2.43;;
12816;SDS011;6473;51.552;6.716;2023-02-27T03:09:08;2.93;;;2.33;;
12816;SDS011;6473;51.552;6.716;2023-02-27T03:11:43;4.53;;;1.90;;
12816;SDS011;6473;51.552;6.716;2023-02-27T03:14:15;2.53;;;2.10;;
12816;SDS011;6473;51.552;6.716;2023-02-27T03:16:48;4.07;;;2.30;;
12816;SDS011;6473;51.552;6.716;2023-02-27T03:19:20;2.50;;;2.30;;
12816;SDS011;6473;51.552;6.716;2023-02-27T03:21:54;2.10;;;1.97;;
12816;SDS011;6473;51.552;6.716;2023-02-27T03:24:30;6.43;;;2.60;;
12816;SDS011;6473;51.552;6.716;2023-02-27T03:27:03;3.33;;;2.30;;
12816;SDS011;6473;51.552;6.716;2023-02-27T03:29:35;3.43;;;2.60;;
12816;SDS011;6473;51.552;6.716;2023-02-27T03:32:08;3.13;;;1.97;;
12816;SDS011;6473;51.552;6.716;2023-02-27T03:34:41;3.40;;;2.33;;
12816;SDS011;6473;51.552;6.716;2023-02-27T03:37:12;3.97;;;2.50;;
12816;SDS011;6473;51.552;6.716;2023-02-27T03:39:57;2.60;;;2.30;;
12816;SDS011;6473;51.552;6.716;2023-02-27T03:42:37;4.90;;;2.40;;
12816;SDS011;6473;51.552;6.716;2023-02-27T03:45:22;3.03;;;2.07;;
12816;SDS011;6473;51.552;6.716;2023-02-27T03:47:57;4.43;;;2.23;;
12816;SDS011;6473;51.552;6.716;2023-02-27T03:50:28;2.40;;;2.20;;
12816;SDS011;6473;51.552;6.716;2023-02-27T03:52:56;3.97;;;2.30;;
12816;SDS011;6473;51.552;6.716;2023-02-27T03:55:27;3.93;;;2.83;;
12816;SDS011;6473;51.552;6.716;2023-02-27T03:57:59;3.03;;;2.27;;
12816;SDS011;6473;51.552;6.716;2023-02-27T04:00:29;2.90;;;2.30;;
12816;SDS011;6473;51.552;6.716;2023-02-27T04:02:57;3.57;;;2.43;;
12816;SDS011;6473;51.552;6.716;2023-02-27T04:05:27;4.80;;;2.57;;
12816;SDS011;6473;51.552;6.716;2023-02-27T04:08:09;4.60;;;2.20;;
12816;SDS011;6473;51.552;6.716;2023-02-27T04:10:55;4.40;;;2.13;;
12816;SDS011;6473;51.552;6.716;2023-02-27T04:13:38;3.63;;;2.20;;
12816;SDS011;6473;51.552;6.716;2023-02-27T04:16:26;5.43;;;2.17;;
12816;SDS011;6473;51.552;6.716;2023-02-27T04:19:07;3.70;;;2.10;;
12816;SDS011;6473;51.552;6.716;2023-02-27T04:21:42;4.03;;;2.30;;
12816;SDS011;6473;51.552;6.716;2023-02-27T04:24:19;5.53;;;2.60;;
12816;SDS011;6473;51.552;6.716;2023-02-27T04:26:56;7.03;;;2.47;;
12816;SDS011;6473;51.552;6.716;2023-02-27T04:29:29;3.37;;;2.10;;
12816;SDS011;6473;51.552;6.716;2023-02-27T04:32:03;3.07;;;2.37;;
12816;SDS011;6473;51.552;6.716;2023-02-27T04:34:35;5.97;;;2.60;;
12816;SDS011;6473;51.552;6.716;2023-02-27T04:37:06;3.80;;;2.30;;
12816;SDS011;6473;51.552;6.716;2023-02-27T04:39:38;6.07;;;2.50;;
12816;SDS011;6473;51.552;6.716;2023-02-27T04:42:12;4.33;;;2.60;;
12816;SDS011;6473;51.552;6.716;2023-02-27T04:44:42;7.03;;;3.00;;
12816;SDS011;6473;51.552;6.716;2023-02-27T04:47:11;8.93;;;2.70;;
12816;SDS011;6473;51.552;6.716;2023-02-27T05:00:46;3.37;;;2.63;;
12816;SDS011;6473;51.552;6.716;2023-02-27T05:05:56;4.07;;;2.77;;
12816;SDS011;6473;51.552;6.716;2023-02-27T05:08:27;3.07;;;2.20;;
12816;SDS011;6473;51.552;6.716;2023-02-27T05:11:02;3.17;;;2.37;;
12816;SDS011;6473;51.552;6.716;2023-02-27T05:13:36;6.23;;;2.80;;
12816;SDS011;6473;51.552;6.716;2023-02-27T05:27:11;3.80;;;2.67;;
12816;SDS011;6473;51.552;6.716;2023-02-27T05:29:47;8.00;;;2.97;;
12816;SDS011;6473;51.552;6.716;2023-02-27T05:32:18;3.60;;;2.90;;
12816;SDS011;6473;51.552;6.716;2023-02-27T05:37:30;3.60;;;2.87;;
12816;SDS011;6473;51.552;6.716;2023-02-27T05:39:59;4.47;;;3.10;;
12816;SDS011;6473;51.552;6.716;2023-02-27T05:59:41;5.33;;;2.53;;
12816;SDS011;6473;51.552;6.716;2023-02-27T06:02:15;3.63;;;2.80;;
12816;SDS011;6473;51.552;6.716;2023-02-27T06:04:44;4.87;;;2.77;;
12816;SDS011;6473;51.552;6.716;2023-02-27T06:07:12;4.53;;;3.13;;
12816;SDS011;6473;51.552;6.716;2023-02-27T06:09:40;9.27;;;3.20;;
12816;SDS011;6473;51.552;6.716;2023-02-27T06:12:08;4.93;;;3.13;;
12816;SDS011;6473;51.552;6.716;2023-02-27T06:14:36;8.60;;;3.20;;
12816;SDS011;6473;51.552;6.716;2023-02-27T06:17:05;7.07;;;3.37;;
12816;SDS011;6473;51.552;6.716;2023-02-27T06:19:33;8.83;;;3.63;;
12816;SDS011;6473;51.552;6.716;2023-02-27T06:22:00;6.00;;;3.40;;
12816;SDS011;6473;51.552;6.716;2023-02-27T06:24:28;8.03;;;2.97;;
12816;SDS011;6473;51.552;6.716;2023-02-27T06:26:56;5.77;;;2.93;;
12816;SDS011;6473;51.552;6.716;2023-02-27T06:29:23;3.13;;;2.70;;
12816;SDS011;6473;51.552;6.716;2023-02-27T06:31:51;7.07;;;3.40;;
12816;SDS011;6473;51.552;6.716;2023-02-27T06:34:20;7.30;;;3.53;;
12816;SDS011;6473;51.552;6.716;2023-02-27T06:36:48;4.57;;;3.40;;
12816;SDS011;6473;51.552;6.716;2023-02-27T06:39:15;5.17;;;4.00;;
12816;SDS011;6473;51.552;6.716;2023-02-27T06:41:45;7.97;;;3.60;;
12816;SDS011;6473;51.552;6.716;2023-02-27T06:44:13;5.43;;;3.70;;
12816;SDS011;6473;51.552;6.716;2023-02-27T06:46:40;13.27;;;4.10;;
12816;SDS011;6473;51.552;6.716;2023-02-27T06:54:31;5.43;;;3.10;;
12816;SDS011;6473;51.552;6.716;2023-02-27T06:56:58;6.13;;;3.00;;
12816;SDS011;6473;51.552;6.716;2023-02-27T06:59:26;5.27;;;2.83;;
12816;SDS011;6473;51.552;6.716;2023-02-27T07:01:53;6.57;;;2.77;;
12816;SDS011;6473;51.552;6.716;2023-02-27T07:04:20;6.47;;;3.27;;
12816;SDS011;6473;51.552;6.716;2023-02-27T07:06:48;5.60;;;3.10;;
12816;SDS011;6473;51.552;6.716;2023-02-27T07:09:15;6.13;;;3.33;;
12816;SDS011;6473;51.552;6.716;2023-02-27T07:11:44;4.60;;;3.10;;
12816;SDS011;6473;51.552;6.716;2023-02-27T07:14:11;4.80;;;3.33;;
12816;SDS011;6473;51.552;6.716;2023-02-27T07:16:40;4.17;;;3.30;;
12816;SDS011;6473;51.552;6.716;2023-02-27T07:19:08;3.73;;;2.93;;
12816;SDS011;6473;51.552;6.716;2023-02-27T07:21:36;8.63;;;3.27;;
12816;SDS011;6473;51.552;6.716;2023-02-27T07:24:04;12.73;;;3.90;;
12816;SDS011;6473;51.552;6.716;2023-02-27T07:26:32;6.20;;;2.90;;
12816;SDS011;6473;51.552;6.716;2023-02-27T07:47:54;8.57;;;3.17;;
12816;SDS011;6473;51.552;6.716;2023-02-27T07:50:22;9.57;;;3.50;;
12816;SDS011;6473;51.552;6.716;2023-02-27T07:52:50;9.70;;;3.50;;
12816;SDS011;6473;51.552;6.716;2023-02-27T07:55:17;5.57;;;3.60;;
12816;SDS011;6473;51.552;6.716;2023-02-27T07:57:44;3.60;;;2.60;;
12816;SDS011;6473;51.552;6.716;2023-02-27T08:00:12;5.40;;;2.80;;
12816;SDS011;6473;51.552;6.716;2023-02-27T08:02:40;3.13;;;2.70;;
12816;SDS011;6473;51.552;6.716;2023-02-27T08:05:14;3.90;;;2.97;;
12816;SDS011;6473;51.552;6.716;2023-02-27T08:12:59;4.10;;;2.70;;
12816;SDS011;6473;51.552;6.716;2023-02-27T08:15:26;9.07;;;2.90;;
12816;SDS011;6473;51.552;6.716;2023-02-27T08:17:54;4.77;;;2.50;;
12816;SDS011;6473;51.552;6.716;2023-02-27T08:20:22;4.27;;;2.30;;
12816;SDS011;6473;51.552;6.716;2023-02-27T08:22:49;2.47;;;2.00;;
12816;SDS011;6473;51.552;6.716;2023-02-27T08:25:16;3.30;;;2.40;;
12816;SDS011;6473;51.552;6.716;2023-02-27T08:27:44;3.30;;;2.08;;
12816;SDS011;6473;51.552;6.716;2023-02-27T08:30:12;6.80;;;2.20;;
12816;SDS011;6473;51.552;6.716;2023-02-27T08:32:41;7.35;;;2.35;;
12816;SDS011;6473;51.552;6.716;2023-02-27T08:35:08;2.13;;;1.90;;
12816;SDS011;6473;51.552;6.716;2023-02-27T08:37:36;5.50;;;2.15;;
12816;SDS011;6473;51.552;6.716;2023-02-27T08:40:04;3.15;;;2.10;;
12816;SDS011;6473;51.552;6.716;2023-02-27T08:42:33;3.65;;;2.05;;
12816;SDS011;6473;51.552;6.716;2023-02-27T08:45:00;2.65;;;1.90;;
12816;SDS011;6473;51.552;6.716;2023-02-27T08:47:28;4.15;;;1.90;;
12816;SDS011;6473;51.552;6.716;2023-02-27T08:49:55;9.95;;;2.20;;
12816;SDS011;6473;51.552;6.716;2023-02-27T08:52:21;3.08;;;1.67;;
12816;SDS011;6473;51.552;6.716;2023-02-27T08:54:50;7.72;;;1.80;;
12816;SDS011;6473;51.552;6.716;2023-02-27T08:57:17;2.35;;;1.52;;
12816;SDS011;6473;51.552;6.716;2023-02-27T08:59:44;3.30;;;1.55;;
12816;SDS011;6473;51.552;6.716;2023-02-27T09:02:11;2.28;;;1.55;;
12816;SDS011;6473;51.552;6.716;2023-02-27T09:04:38;2.85;;;1.65;;
12816;SDS011;6473;51.552;6.716;2023-02-27T09:07:05;5.13;;;1.85;;
12816;SDS011;6473;51.552;6.716;2023-02-27T09:09:32;3.75;;;1.60;;
12816;SDS011;6473;51.552;6.716;2023-02-27T09:12:00;2.05;;;1.80;;
12816;SDS011;6473;51.552;6.716;2023-02-27T09:14:27;11.10;;;2.70;;
12816;SDS011;6473;51.552;6.716;2023-02-27T09:16:54;3.72;;;1.95;;
12816;SDS011;6473;51.552;6.716;2023-02-27T09:19:22;4.30;;;2.35;;
12816;SDS011;6473;51.552;6.716;2023-02-27T09:21:49;5.22;;;1.80;;
12816;SDS011;6473;51.552;6.716;2023-02-27T09:24:16;1.73;;;1.27;;
12816;SDS011;6473;51.552;6.716;2023-02-27T09:26:43;1.98;;;1.73;;
12816;SDS011;6473;51.552;6.716;2023-02-27T09:29:12;7.40;;;2.03;;
12816;SDS011;6473;51.552;6.716;2023-02-27T09:31:39;3.70;;;1.40;;
12816;SDS011;6473;51.552;6.716;2023-02-27T09:34:06;2.88;;;1.58;;
12816;SDS011;6473;51.552;6.716;2023-02-27T09:36:33;6.68;;;1.90;;
12816;SDS011;6473;51.552;6.716;2023-02-27T09:39:01;2.80;;;1.70;;
12816;SDS011;6473;51.552;6.716;2023-02-27T09:41:32;2.20;;;1.50;;
12816;SDS011;6473;51.552;6.716;2023-02-27T09:44:23;4.82;;;1.60;;
12816;SDS011;6473;51.552;6.716;2023-02-27T09:46:57;9.63;;;2.95;;
12816;SDS011;6473;51.552;6.716;2023-02-27T09:49:25;1.85;;;1.15;;
12816;SDS011;6473;51.552;6.716;2023-02-27T09:51:56;3.22;;;1.67;;
12816;SDS011;6473;51.552;6.716;2023-02-27T09:54:24;3.67;;;1.77;;
12816;SDS011;6473;51.552;6.716;2023-02-27T09:56:57;3.80;;;2.22;;
12816;SDS011;6473;51.552;6.716;2023-02-27T09:59:33;5.20;;;1.80;;
12816;SDS011;6473;51.552;6.716;2023-02-27T10:02:09;7.72;;;2.10;;
12816;SDS011;6473;51.552;6.716;2023-02-27T10:04:48;1.38;;;1.27;;
12816;SDS011;6473;51.552;6.716;2023-02-27T10:07:22;1.88;;;1.50;;
12816;SDS011;6473;51.552;6.716;2023-02-27T10:09:57;2.22;;;1.58;;
12816;SDS011;6473;51.552;6.716;2023-02-27T10:12:48;3.58;;;1.30;;
12816;SDS011;6473;51.552;6.716;2023-02-27T10:15:25;3.05;;;1.40;;
12816;SDS011;6473;51.552;6.716;2023-02-27T10:17:57;11.52;;;1.73;;
12816;SDS011;6473;51.552;6.716;2023-02-27T10:20:27;1.48;;;1.27;;
12816;SDS011;6473;51.552;6.716;2023-02-27T10:22:57;5.93;;;1.65;;
12816;SDS011;6473;51.552;6.716;2023-02-27T10:25:27;1.23;;;1.13;;
12816;SDS011;6473;51.552;6.716;2023-02-27T10:27:55;2.90;;;1.20;;
12816;SDS011;6473;51.552;6.716;2023-02-27T10:30:29;8.75;;;1.70;;
12816;SDS011;6473;51.552;6.716;2023-02-27T10:32:56;10.93;;;2.25;;
12816;SDS011;6473;51.552;6.716;2023-02-27T10:35:34;3.22;;;1.60;;
12816;SDS011;6473;51.552;6.716;2023-02-27T10:38:04;3.20;;;1.23;;
12816;SDS011;6473;51.552;6.716;2023-02-27T10:40:36;6.18;;;1.65;;
12816;SDS011;6473;51.552;6.716;2023-02-27T10:43:06;3.33;;;1.20;;
12816;SDS011;6473;51.552;6.716;2023-02-27T10:45:34;3.05;;;1.30;;
12816;SDS011;6473;51.552;6.716;2023-02-27T10:48:01;3.20;;;1.30;;
12816;SDS011;6473;51.552;6.716;2023-02-27T10:50:32;3.55;;;1.40;;
12816;SDS011;6473;51.552;6.716;2023-02-27T10:53:03;3.65;;;1.50;;
12816;SDS011;6473;51.552;6.716;2023-02-27T10:55:41;3.08;;;1.40;;
12816;SDS011;6473;51.552;6.716;2023-02-27T10:58:16;2.95;;;1.30;;
12816;SDS011;6473;51.552;6.716;2023-02-27T11:00:51;2.30;;;1.20;;
12816;SDS011;6473;51.552;6.716;2023-02-27T11:03:21;3.70;;;1.17;;
12816;SDS011;6473;51.552;6.716;2023-02-27T11:05:53;3.25;;;1.77;;
12816;SDS011;6473;51.552;6.716;2023-02-27T11:08:23;9.05;;;2.10;;
12816;SDS011;6473;51.552;6.716;2023-02-27T11:10:53;2.88;;;1.85;;
12816;SDS011;6473;51.552;6.716;2023-02-27T11:13:22;4.15;;;1.73;;
12816;SDS011;6473;51.552;6.716;2023-02-27T11:16:05;4.90;;;1.73;;
12816;SDS011;6473;51.552;6.716;2023-02-27T11:18:34;3.45;;;1.73;;
12816;SDS011;6473;51.552;6.716;2023-02-27T11:23:55;3.10;;;1.60;;
12816;SDS011;6473;51.552;6.716;2023-02-27T11:26:25;2.05;;;1.33;;
12816;SDS011;6473;51.552;6.716;2023-02-27T11:31:47;7.28;;;1.67;;
12816;SDS011;6473;51.552;6.716;2023-02-27T11:34:19;1.80;;;1.00;;
12816;SDS011;6473;51.552;6.716;2023-02-27T11:36:50;2.78;;;1.40;;
12816;SDS011;6473;51.552;6.716;2023-02-27T11:39:21;2.72;;;1.42;;
12816;SDS011;6473;51.552;6.716;2023-02-27T11:41:51;1.33;;;1.23;;
12816;SDS011;6473;51.552;6.716;2023-02-27T11:44:21;1.40;;;1.10;;
12816;SDS011;6473;51.552;6.716;2023-02-27T11:46:52;3.88;;;1.30;;
12816;SDS011;6473;51.552;6.716;2023-02-27T11:49:35;1.98;;;1.50;;
12816;SDS011;6473;51.552;6.716;2023-02-27T11:52:07;1.48;;;1.15;;
12816;SDS011;6473;51.552;6.716;2023-02-27T11:54:39;7.03;;;1.67;;
12816;SDS011;6473;51.552;6.716;2023-02-27T11:57:11;3.42;;;1.40;;
12816;SDS011;6473;51.552;6.716;2023-02-27T11:59:46;2.67;;;1.25;;
12816;SDS011;6473;51.552;6.716;2023-02-27T12:02:21;17.08;;;2.38;;
12816;SDS011;6473;51.552;6.716;2023-02-27T12:04:55;2.75;;;1.40;;
12816;SDS011;6473;51.552;6.716;2023-02-27T12:07:28;2.17;;;1.40;;
12816;SDS011;6473;51.552;6.716;2023-02-27T12:10:02;2.95;;;1.38;;
12816;SDS011;6473;51.552;6.716;2023-02-27T12:12:35;1.52;;;1.40;;
12816;SDS011;6473;51.552;6.716;2023-02-27T12:15:13;3.08;;;1.40;;
12816;SDS011;6473;51.552;6.716;2023-02-27T12:17:48;2.50;;;1.60;;
12816;SDS011;6473;51.552;6.716;2023-02-27T12:20:26;20.52;;;3.00;;
12816;SDS011;6473;51.552;6.716;2023-02-27T12:22:55;1.70;;;1.50;;
12816;SDS011;6473;51.552;6.716;2023-02-27T12:25:29;3.30;;;1.60;;
12816;SDS011;6473;51.552;6.716;2023-02-27T12:28:02;2.63;;;1.65;;
12816;SDS011;6473;51.552;6.716;2023-02-27T12:30:35;1.77;;;1.63;;
12816;SDS011;6473;51.552;6.716;2023-02-27T12:33:10;2.08;;;1.50;;
12816;SDS011;6473;51.552;6.716;2023-02-27T12:35:43;4.22;;;1.58;;
12816;SDS011;6473;51.552;6.716;2023-02-27T12:38:12;2.83;;;1.50;;
12816;SDS011;6473;51.552;6.716;2023-02-27T12:40:41;3.00;;;1.38;;
12816;SDS011;6473;51.552;6.716;2023-02-27T12:43:15;1.95;;;1.40;;
12816;SDS011;6473;51.552;6.716;2023-02-27T12:45:55;3.13;;;1.60;;
12816;SDS011;6473;51.552;6.716;2023-02-27T12:54:20;3.83;;;1.55;;
12816;SDS011;6473;51.552;6.716;2023-02-27T12:56:51;2.35;;;1.50;;
12816;SDS011;6473;51.552;6.716;2023-02-27T13:05:08;5.90;;;1.58;;
12816;SDS011;6473;51.552;6.716;2023-02-27T13:07:49;2.33;;;1.60;;
12816;SDS011;6473;51.552;6.716;2023-02-27T13:10:23;2.58;;;1.50;;
12816;SDS011;6473;51.552;6.716;2023-02-27T13:12:57;2.10;;;1.40;;
12816;SDS011;6473;51.552;6.716;2023-02-27T13:15:32;2.88;;;1.30;;
12816;SDS011;6473;51.552;6.716;2023-02-27T13:18:06;3.80;;;1.60;;
12816;SDS011;6473;51.552;6.716;2023-02-27T13:20:54;53.97;;;4.85;;
12816;SDS011;6473;51.552;6.716;2023-02-27T13:23:29;3.00;;;1.52;;
12816;SDS011;6473;51.552;6.716;2023-02-27T13:26:00;2.35;;;1.40;;
12816;SDS011;6473;51.552;6.716;2023-02-27T13:28:33;2.75;;;1.65;;
12816;SDS011;6473;51.552;6.716;2023-02-27T13:31:03;9.27;;;1.80;;
12816;SDS011;6473;51.552;6.716;2023-02-27T13:33:37;3.78;;;1.63;;
12816;SDS011;6473;51.552;6.716;2023-02-27T13:36:13;2.45;;;1.40;;
12816;SDS011;6473;51.552;6.716;2023-02-27T13:38:46;10.35;;;1.95;;
12816;SDS011;6473;51.552;6.716;2023-02-27T13:41:32;1.80;;;1.40;;
12816;SDS011;6473;51.552;6.716;2023-02-27T13:53:18;13.18;;;2.00;;
12816;SDS011;6473;51.552;6.716;2023-02-27T13:55:48;1.85;;;1.20;;
12816;SDS011;6473;51.552;6.716;2023-02-27T13:58:22;2.10;;;1.30;;
12816;SDS011;6473;51.552;6.716;2023-02-27T14:00:59;2.22;;;1.40;;
12816;SDS011;6473;51.552;6.716;2023-02-27T14:03:27;2.22;;;1.40;;
12816;SDS011;6473;51.552;6.716;2023-02-27T14:05:57;3.92;;;1.70;;
12816;SDS011;6473;51.552;6.716;2023-02-27T14:08:32;3.70;;;1.20;;
12816;SDS011;6473;51.552;6.716;2023-02-27T14:11:18;3.65;;;1.67;;
12816;SDS011;6473;51.552;6.716;2023-02-27T14:16:58;12.27;;;1.95;;
12816;SDS011;6473;51.552;6.716;2023-02-27T14:22:27;6.25;;;2.33;;
12816;SDS011;6473;51.552;6.716;2023-02-27T14:25:00;5.18;;;1.67;;
12816;SDS011;6473;51.552;6.716;2023-02-27T14:27:39;2.05;;;1.40;;
12816;SDS011;6473;51.552;6.716;2023-02-27T14:30:21;2.80;;;1.50;;
12816;SDS011;6473;51.552;6.716;2023-02-27T14:33:14;2.13;;;1.42;;
12816;SDS011;6473;51.552;6.716;2023-02-27T14:35:44;3.83;;;1.67;;
12816;SDS011;6473;51.552;6.716;2023-02-27T14:38:13;1.73;;;1.50;;
12816;SDS011;6473;51.552;6.716;2023-02-27T14:40:46;6.18;;;1.73;;
12816;SDS011;6473;51.552;6.716;2023-02-27T14:43:19;3.20;;;1.90;;
12816;SDS011;6473;51.552;6.716;2023-02-27T14:45:49;2.33;;;1.77;;
12816;SDS011;6473;51.552;6.716;2023-02-27T14:48:18;3.42;;;1.73;;
12816;SDS011;6473;51.552;6.716;2023-02-27T14:50:52;13.85;;;3.33;;
12816;SDS011;6473;51.552;6.716;2023-02-27T14:53:22;1.60;;;1.40;;
12816;SDS011;6473;51.552;6.716;2023-02-27T14:55:54;2.47;;;1.80;;
12816;SDS011;6473;51.552;6.716;2023-02-27T14:58:23;2.17;;;1.77;;
12816;SDS011;6473;51.552;6.716;2023-02-27T15:00:56;1.98;;;1.50;;
12816;SDS011;6473;51.552;6.716;2023-02-27T15:03:28;1.65;;;1.50;;
12816;SDS011;6473;51.552;6.716;2023-02-27T15:06:00;3.08;;;1.70;;
12816;SDS011;6473;51.552;6.716;2023-02-27T15:08:30;2.65;;;1.80;;
12816;SDS011;6473;51.552;6.716;2023-02-27T15:10:58;1.90;;;1.42;;
12816;SDS011;6473;51.552;6.716;2023-02-27T15:13:28;3.50;;;1.60;;
12816;SDS011;6473;51.552;6.716;2023-02-27T15:18:55;2.60;;;1.65;;
12816;SDS011;6473;51.552;6.716;2023-02-27T15:21:23;1.92;;;1.75;;
12816;SDS011;6473;51.552;6.716;2023-02-27T15:23:55;2.55;;;1.50;;
12816;SDS011;6473;51.552;6.716;2023-02-27T15:26:22;3.88;;;1.80;;
12816;SDS011;6473;51.552;6.716;2023-02-27T15:28:53;2.70;;;1.58;;
12816;SDS011;6473;51.552;6.716;2023-02-27T15:31:20;1.55;;;1.45;;
12816;SDS011;6473;51.552;6.716;2023-02-27T15:33:48;1.90;;;1.65;;
12816;SDS011;6473;51.552;6.716;2023-02-27T15:36:18;6.38;;;2.20;;
12816;SDS011;6473;51.552;6.716;2023-02-27T15:38:45;4.97;;;1.67;;
12816;SDS011;6473;51.552;6.716;2023-02-27T15:41:12;12.90;;;2.03;;
12816;SDS011;6473;51.552;6.716;2023-02-27T15:43:40;1.63;;;1.52;;
12816;SDS011;6473;51.552;6.716;2023-02-27T15:46:08;7.00;;;1.90;;
12816;SDS011;6473;51.552;6.716;2023-02-27T15:48:35;2.83;;;1.50;;
12816;SDS011;6473;51.552;6.716;2023-02-27T15:51:02;15.35;;;2.88;;
12816;SDS011;6473;51.552;6.716;2023-02-27T15:53:30;1.63;;;1.42;;
12816;SDS011;6473;51.552;6.716;2023-02-27T15:55:58;9.02;;;2.05;;
12816;SDS011;6473;51.552;6.716;2023-02-27T15:58:29;2.00;;;1.23;;
12816;SDS011;6473;51.552;6.716;2023-02-27T16:00:57;4.22;;;1.73;;
12816;SDS011;6473;51.552;6.716;2023-02-27T16:03:28;4.10;;;1.63;;
12816;SDS011;6473;51.552;6.716;2023-02-27T16:05:57;2.22;;;1.40;;
12816;SDS011;6473;51.552;6.716;2023-02-27T16:08:24;4.32;;;1.52;;
12816;SDS011;6473;51.552;6.716;2023-02-27T16:10:53;3.20;;;1.45;;
12816;SDS011;6473;51.552;6.716;2023-02-27T16:13:20;2.03;;;1.70;;
12816;SDS011;6473;51.552;6.716;2023-02-27T16:15:58;16.20;;;2.42;;
12816;SDS011;6473;51.552;6.716;2023-02-27T16:18:29;7.35;;;1.40;;
12816;SDS011;6473;51.552;6.716;2023-02-27T16:23:45;7.90;;;1.90;;
12816;SDS011;6473;51.552;6.716;2023-02-27T16:26:16;1.52;;;1.27;;
12816;SDS011;6473;51.552;6.716;2023-02-27T16:28:49;10.73;;;1.85;;
12816;SDS011;6473;51.552;6.716;2023-02-27T16:31:24;3.30;;;1.35;;
12816;SDS011;6473;51.552;6.716;2023-02-27T16:33:55;3.90;;;1.73;;
12816;SDS011;6473;51.552;6.716;2023-02-27T16:36:23;2.35;;;1.58;;
12816;SDS011;6473;51.552;6.716;2023-02-27T16:38:51;2.30;;;1.73;;
12816;SDS011;6473;51.552;6.716;2023-02-27T16:41:19;2.38;;;1.48;;
12816;SDS011;6473;51.552;6.716;2023-02-27T16:43:47;1.33;;;1.23;;
12816;SDS011;6473;51.552;6.716;2023-02-27T16:46:15;6.00;;;1.42;;
12816;SDS011;6473;51.552;6.716;2023-02-27T16:48:45;11.68;;;2.10;;
12816;SDS011;6473;51.552;6.716;2023-02-27T16:51:16;2.53;;;1.65;;
12816;SDS011;6473;51.552;6.716;2023-02-27T16:53:45;2.78;;;1.73;;
12816;SDS011;6473;51.552;6.716;2023-02-27T16:56:13;7.80;;;1.70;;
12816;SDS011;6473;51.552;6.716;2023-02-27T16:58:40;1.92;;;1.70;;
12816;SDS011;6473;51.552;6.716;2023-02-27T17:01:08;4.25;;;1.63;;
12816;SDS011;6473;51.552;6.716;2023-02-27T17:03:37;1.98;;;1.77;;
12816;SDS011;6473;51.552;6.716;2023-02-27T17:06:04;2.88;;;1.73;;
12816;SDS011;6473;51.552;6.716;2023-02-27T17:08:33;3.30;;;2.00;;
12816;SDS011;6473;51.552;6.716;2023-02-27T17:11:00;1.90;;;1.80;;
12816;SDS011;6473;51.552;6.716;2023-02-27T17:13:28;3.58;;;2.00;;
12816;SDS011;6473;51.552;6.716;2023-02-27T17:15:56;2.70;;;1.80;;
12816;SDS011;6473;51.552;6.716;2023-02-27T17:18:23;6.13;;;2.10;;
12816;SDS011;6473;51.552;6.716;2023-02-27T17:20:50;4.03;;;1.73;;
12816;SDS011;6473;51.552;6.716;2023-02-27T17:23:18;1.90;;;1.67;;
12816;SDS011;6473;51.552;6.716;2023-02-27T17:25:46;2.95;;;1.90;;
12816;SDS011;6473;51.552;6.716;2023-02-27T17:28:14;3.15;;;1.80;;
12816;SDS011;6473;51.552;6.716;2023-02-27T17:30:43;2.00;;;1.70;;
12816;SDS011;6473;51.552;6.716;2023-02-27T17:33:51;1.98;;;1.70;;
12816;SDS011;6473;51.552;6.716;2023-02-27T17:40:19;5.47;;;3.10;;
12816;SDS011;6473;51.552;6.716;2023-02-27T17:43:13;5.90;;;2.33;;
12816;SDS011;6473;51.552;6.716;2023-02-27T17:45:46;3.30;;;1.77;;
12816;SDS011;6473;51.552;6.716;2023-02-27T17:48:14;7.40;;;2.58;;